CheckWX is a tool to help pilots better visualize weather data.  It is not intended as a substitute for an official pre-flight weather briefing.

00:23:37 UTC

M21 METAR
Muhlenberg County Airport
Greenville, Kentucky, USA
Current

9 mins ago

KM21 210015Z AUTO 00000KT 10SM CLR 06/03 A3021 RMK AO2 T00610029
Observed
Nov-21 @ 00:15 UTC
Visibility
10 SM
Flight Rules
VFR
Cloud Levels
  • Clear skies
Temperature
C / 43°F
Dewpoint
C / 37°F
Humidity
81%
Altimeter
30.21" Hg
Pressure
1023.02 hPa
Previous

29 mins ago

KM21 202355Z AUTO 00000KT 10SM CLR 07/03 A3021 RMK AO2 T00730031 10133 20073
Observed
Nov-20 @ 23:55 UTC
Visibility
10 SM
Flight Rules
VFR
Cloud Levels
  • Clear skies
Temperature
C / 45°F
Dewpoint
C / 37°F
Humidity
76%
Altimeter
30.21" Hg
Pressure
1023.02 hPa
Previous

49 mins ago

KM21 202335Z AUTO 00000KT 10SM CLR 08/03 A3021 RMK AO2 T00840032
Observed
Nov-20 @ 23:35 UTC
Visibility
10 SM
Flight Rules
VFR
Cloud Levels
  • Clear skies
Temperature
C / 46°F
Dewpoint
C / 37°F
Humidity
71%
Altimeter
30.21" Hg
Pressure
1023.02 hPa